createdAt,value
2022-12-31T00:01:19.079Z,88.57
2022-12-31T00:03:46.160Z,88.78
2022-12-31T00:06:25.539Z,88.72
2022-12-31T00:08:53.711Z,88.43
2022-12-31T00:11:21.763Z,91.00
2022-12-31T00:13:48.844Z,89.15
2022-12-31T00:16:22.263Z,88.28
2022-12-31T00:18:51.936Z,88.65
2022-12-31T00:21:19.377Z,88.78
2022-12-31T00:23:46.132Z,88.30
2022-12-31T00:26:16.181Z,88.95
2022-12-31T00:28:43.446Z,88.43
2022-12-31T00:31:20.178Z,89.28
2022-12-31T00:33:46.904Z,88.90
2022-12-31T00:36:16.619Z,89.03
2022-12-31T00:38:45.081Z,90.03
2022-12-31T00:41:12.663Z,87.88
2022-12-31T00:43:39.429Z,91.05
2022-12-31T00:46:06.873Z,88.78
2022-12-31T00:48:34.639Z,88.32
2022-12-31T00:51:03.240Z,90.60
2022-12-31T00:53:30.307Z,88.30
2022-12-31T00:56:05.808Z,88.28
2022-12-31T00:58:33.485Z,88.97
2022-12-31T01:01:27.806Z,96.45
2022-12-31T01:03:58.531Z,88.45
2022-12-31T01:06:25.405Z,88.13
2022-12-31T01:08:53.636Z,89.32
2022-12-31T01:11:23.967Z,90.85
2022-12-31T01:14:04.560Z,88.88
2022-12-31T01:16:32.529Z,89.32
2022-12-31T01:19:01.142Z,89.47
2022-12-31T01:21:28.671Z,88.40
2022-12-31T01:23:55.397Z,92.75
2022-12-31T01:26:22.036Z,88.68
2022-12-31T01:28:48.748Z,88.82
2022-12-31T01:31:18.352Z,90.07
2022-12-31T01:33:45.664Z,88.43
2022-12-31T01:36:18.946Z,88.18
2022-12-31T01:38:48.441Z,88.93
2022-12-31T01:41:17.557Z,88.00
2022-12-31T01:43:49.998Z,93.22
2022-12-31T01:46:40.344Z,87.93
2022-12-31T01:49:35.759Z,93.95
2022-12-31T01:52:09.837Z,88.47
2022-12-31T01:54:41.151Z,88.35
2022-12-31T01:57:08.994Z,88.47
2022-12-31T01:59:36.217Z,87.78
2022-12-31T02:02:03.636Z,88.82
2022-12-31T02:04:30.520Z,89.05
2022-12-31T02:07:03.565Z,87.97
2022-12-31T02:09:31.223Z,88.93
2022-12-31T02:11:57.926Z,92.55
2022-12-31T02:14:31.425Z,89.40
2022-12-31T02:17:21.923Z,88.40
2022-12-31T02:20:26.523Z,88.65
2022-12-31T02:23:22.268Z,88.07
2022-12-31T02:26:13.919Z,89.05
2022-12-31T02:29:29.435Z,88.72
2022-12-31T02:32:07.575Z,88.43
2022-12-31T02:34:41.301Z,90.25
2022-12-31T02:37:12.572Z,88.65
2022-12-31T02:39:40.239Z,89.22
2022-12-31T02:42:07.029Z,88.53
2022-12-31T02:44:36.443Z,88.47
2022-12-31T02:47:13.414Z,88.15
2022-12-31T02:49:40.017Z,87.88
2022-12-31T02:52:23.963Z,88.72
2022-12-31T02:55:04.922Z,92.05
2022-12-31T02:57:45.938Z,87.93
2022-12-31T03:00:33.897Z,91.30
2022-12-31T03:03:01.904Z,88.70
2022-12-31T03:05:33.257Z,91.10
2022-12-31T03:07:59.905Z,90.50
2022-12-31T03:10:26.554Z,89.07
2022-12-31T03:12:53.460Z,88.88
2022-12-31T03:15:30.764Z,93.55
2022-12-31T03:18:03.538Z,90.05
2022-12-31T03:20:57.491Z,88.75
2022-12-31T03:23:25.773Z,89.53
2022-12-31T03:25:53.362Z,90.20
2022-12-31T03:28:22.183Z,88.78
2022-12-31T03:30:51.838Z,88.70
2022-12-31T03:33:19.237Z,88.82
2022-12-31T03:35:47.666Z,91.63
2022-12-31T03:38:15.574Z,89.63
2022-12-31T03:40:48.439Z,89.47
2022-12-31T03:43:15.107Z,88.28
2022-12-31T03:45:42.102Z,87.93
2022-12-31T03:48:10.079Z,97.25
2022-12-31T03:50:36.838Z,88.85
2022-12-31T03:53:03.502Z,88.55
2022-12-31T03:55:30.245Z,88.22
2022-12-31T03:57:56.989Z,88.75
2022-12-31T04:00:23.636Z,88.72
2022-12-31T04:02:50.855Z,88.97
2022-12-31T04:05:19.344Z,88.65
2022-12-31T04:07:46.627Z,92.20
2022-12-31T04:10:15.923Z,92.55
2022-12-31T04:12:43.318Z,88.85
2022-12-31T04:15:11.781Z,88.38
2022-12-31T04:17:38.428Z,88.25
2022-12-31T04:20:05.553Z,89.43
2022-12-31T04:22:32.363Z,89.63
2022-12-31T04:24:59.002Z,88.18
2022-12-31T04:27:25.702Z,88.88
2022-12-31T04:29:52.393Z,88.57
2022-12-31T04:32:19.104Z,89.03
2022-12-31T04:34:45.714Z,88.13
2022-12-31T04:37:12.368Z,91.45
2022-12-31T04:39:38.992Z,90.40
2022-12-31T04:42:05.773Z,88.25
2022-12-31T04:44:34.834Z,89.38
2022-12-31T04:47:01.481Z,90.85
2022-12-31T04:49:28.247Z,89.32
2022-12-31T04:51:54.893Z,89.90
2022-12-31T04:54:21.581Z,87.90
2022-12-31T04:56:48.179Z,88.40
2022-12-31T04:59:14.831Z,91.10
2022-12-31T05:01:41.623Z,88.47
2022-12-31T05:04:08.406Z,91.90
2022-12-31T05:06:35.110Z,88.13
2022-12-31T05:09:01.751Z,89.78
2022-12-31T05:11:28.392Z,89.32
2022-12-31T05:13:55.130Z,87.95
2022-12-31T05:16:21.883Z,88.28
2022-12-31T05:18:48.510Z,91.35
2022-12-31T05:21:20.012Z,89.70
2022-12-31T05:23:47.199Z,88.03
2022-12-31T05:26:14.199Z,88.43
2022-12-31T05:28:41.222Z,89.53
2022-12-31T05:31:08.076Z,88.85
2022-12-31T05:33:34.814Z,88.63
2022-12-31T05:36:01.641Z,88.22
2022-12-31T05:38:28.299Z,88.07
2022-12-31T05:41:03.739Z,89.32
2022-12-31T05:43:31.763Z,89.10
2022-12-31T05:46:04.259Z,89.00
2022-12-31T05:48:31.811Z,88.47
2022-12-31T05:50:58.768Z,92.43
2022-12-31T05:53:25.464Z,89.00
2022-12-31T05:55:52.138Z,90.38
2022-12-31T05:58:18.838Z,88.57
2022-12-31T06:00:46.017Z,89.03
2022-12-31T06:03:13.040Z,88.07
2022-12-31T06:05:41.695Z,88.30
2022-12-31T06:08:08.509Z,88.50
2022-12-31T06:10:35.133Z,88.22
2022-12-31T06:13:01.829Z,87.93
2022-12-31T06:15:28.475Z,89.05
2022-12-31T06:17:55.149Z,87.72
2022-12-31T06:20:21.790Z,91.63
2022-12-31T06:22:48.443Z,88.50
2022-12-31T06:25:15.235Z,88.25
2022-12-31T06:27:41.890Z,87.88
2022-12-31T06:30:09.379Z,88.50
2022-12-31T06:32:36.055Z,89.05
2022-12-31T06:35:02.828Z,88.25
2022-12-31T06:37:29.480Z,89.18
2022-12-31T06:39:56.125Z,87.97
2022-12-31T06:42:22.785Z,92.45
2022-12-31T06:44:49.431Z,90.38
2022-12-31T06:47:16.063Z,88.07
2022-12-31T06:49:42.704Z,89.35
2022-12-31T06:52:09.341Z,88.00
2022-12-31T06:54:36.321Z,88.78
2022-12-31T06:57:03.348Z,87.93
2022-12-31T06:59:30.807Z,88.60
2022-12-31T07:02:51.963Z,88.30
2022-12-31T07:05:36.305Z,87.88
2022-12-31T07:08:21.421Z,87.68
2022-12-31T07:11:04.881Z,88.55
2022-12-31T07:13:49.504Z,89.50
2022-12-31T07:16:35.740Z,89.40
2022-12-31T07:19:17.635Z,91.65
2022-12-31T07:21:44.828Z,89.43
2022-12-31T07:24:12.429Z,93.00
2022-12-31T07:27:00.016Z,89.70
2022-12-31T07:29:58.000Z,90.00
2022-12-31T07:32:40.861Z,89.43
2022-12-31T07:35:29.733Z,91.18
2022-12-31T07:38:06.621Z,88.13
2022-12-31T07:40:49.284Z,90.75
2022-12-31T07:43:32.802Z,88.25
2022-12-31T07:46:24.306Z,90.03
2022-12-31T07:48:51.256Z,89.07
2022-12-31T07:51:18.198Z,88.95
2022-12-31T07:53:44.871Z,90.00
2022-12-31T07:56:11.619Z,88.82
2022-12-31T07:59:24.086Z,91.45
2022-12-31T08:02:04.108Z,88.55
2022-12-31T08:04:42.411Z,90.22
2022-12-31T08:07:30.973Z,88.45
2022-12-31T08:10:27.819Z,89.70
2022-12-31T08:13:02.722Z,90.20
2022-12-31T08:15:30.683Z,90.25
2022-12-31T08:17:57.896Z,89.38
2022-12-31T08:20:26.016Z,92.05
2022-12-31T08:23:28.378Z,89.38
2022-12-31T08:26:06.402Z,88.43
2022-12-31T08:29:05.597Z,88.80
2022-12-31T08:31:54.210Z,89.32
2022-12-31T08:34:55.761Z,91.20
2022-12-31T08:37:41.659Z,90.75
2022-12-31T08:40:25.495Z,90.50
2022-12-31T08:43:33.124Z,88.30
2022-12-31T08:46:00.365Z,90.38
2022-12-31T08:48:41.689Z,91.50
2022-12-31T08:51:24.313Z,93.60
2022-12-31T08:53:52.995Z,89.28
2022-12-31T08:56:50.424Z,89.90
2022-12-31T08:59:40.459Z,89.65
2022-12-31T09:02:37.086Z,88.95
2022-12-31T09:05:47.145Z,89.10
2022-12-31T09:08:25.339Z,88.82
2022-12-31T09:11:22.896Z,90.82
2022-12-31T09:14:16.949Z,89.05
2022-12-31T09:17:04.309Z,89.75
2022-12-31T09:19:30.937Z,90.25
2022-12-31T09:21:57.872Z,91.25
2022-12-31T09:24:24.831Z,88.72
2022-12-31T09:27:03.886Z,90.88
2022-12-31T09:29:54.845Z,89.32
2022-12-31T09:32:30.186Z,89.60
2022-12-31T09:35:04.827Z,88.25
2022-12-31T09:37:37.438Z,89.20
2022-12-31T09:40:32.390Z,89.40
2022-12-31T09:43:01.944Z,88.45
2022-12-31T09:45:56.403Z,88.57
2022-12-31T09:48:23.006Z,90.93
2022-12-31T09:51:25.244Z,87.65
2022-12-31T09:54:12.733Z,88.90
2022-12-31T09:57:15.159Z,88.70
2022-12-31T10:00:04.071Z,89.30
2022-12-31T10:02:56.043Z,87.57
2022-12-31T10:05:57.970Z,87.85
2022-12-31T10:08:52.971Z,90.55
2022-12-31T10:11:57.512Z,91.20
2022-12-31T10:15:01.717Z,88.53
2022-12-31T10:17:58.744Z,87.28
2022-12-31T10:20:25.376Z,87.72
2022-12-31T10:23:04.443Z,88.05
2022-12-31T10:25:38.968Z,88.03
2022-12-31T10:28:23.874Z,90.53
2022-12-31T10:31:09.267Z,86.95
2022-12-31T10:33:50.620Z,87.03
2022-12-31T10:36:51.378Z,88.95
2022-12-31T10:39:42.828Z,88.03
2022-12-31T10:42:30.610Z,87.45
2022-12-31T10:45:18.897Z,86.95
2022-12-31T10:48:03.750Z,86.07
2022-12-31T10:51:02.835Z,87.75
2022-12-31T10:53:42.187Z,85.93
2022-12-31T10:56:23.803Z,85.07
2022-12-31T10:59:25.830Z,86.15
2022-12-31T11:02:18.604Z,84.82
2022-12-31T11:05:24.467Z,87.18
2022-12-31T11:07:51.789Z,85.78
2022-12-31T11:10:24.345Z,88.45
2022-12-31T11:13:03.583Z,85.72
2022-12-31T11:15:55.153Z,85.80
2022-12-31T11:18:33.871Z,87.93
2022-12-31T11:21:41.366Z,86.32
2022-12-31T11:24:27.343Z,85.88
2022-12-31T11:27:17.049Z,85.65
2022-12-31T11:29:54.173Z,87.88
2022-12-31T11:32:26.596Z,86.10
2022-12-31T11:34:59.205Z,90.95
2022-12-31T11:37:48.113Z,85.72
2022-12-31T11:40:33.723Z,88.97
2022-12-31T11:43:28.442Z,89.63
2022-12-31T11:46:16.197Z,87.38
2022-12-31T11:48:57.775Z,88.05
2022-12-31T11:51:50.662Z,85.63
2022-12-31T11:54:45.391Z,89.82
2022-12-31T11:57:35.225Z,87.15
2022-12-31T12:00:04.470Z,89.07
2022-12-31T12:02:37.330Z,86.13
2022-12-31T12:05:10.675Z,87.20
2022-12-31T12:07:38.526Z,86.30
2022-12-31T12:10:22.538Z,87.80
2022-12-31T12:12:50.174Z,86.72
2022-12-31T12:15:47.547Z,87.88
2022-12-31T12:18:28.603Z,88.13
2022-12-31T12:21:05.602Z,88.90
2022-12-31T12:23:32.930Z,89.28
2022-12-31T12:25:59.920Z,89.05
2022-12-31T12:28:29.750Z,88.53
2022-12-31T12:31:00.930Z,87.75
2022-12-31T12:33:29.875Z,88.15
2022-12-31T12:36:15.465Z,85.60
2022-12-31T12:38:42.824Z,86.90
2022-12-31T12:41:25.461Z,87.38
2022-12-31T12:44:07.096Z,85.78
2022-12-31T12:46:41.330Z,89.32
2022-12-31T12:49:24.344Z,88.38
2022-12-31T12:52:12.769Z,87.78
2022-12-31T12:54:56.006Z,87.68
2022-12-31T12:57:34.089Z,87.20
2022-12-31T13:00:14.603Z,87.32
2022-12-31T13:02:48.781Z,87.60
2022-12-31T13:05:52.671Z,86.72
2022-12-31T13:08:40.210Z,89.97
2022-12-31T13:11:33.046Z,86.13
2022-12-31T13:14:08.636Z,87.07
2022-12-31T13:16:46.563Z,88.30
2022-12-31T13:19:13.354Z,86.45
2022-12-31T13:21:57.094Z,90.05
2022-12-31T13:24:45.757Z,85.43
2022-12-31T13:27:30.796Z,87.50
2022-12-31T13:30:01.377Z,87.68
2022-12-31T13:32:42.288Z,87.97
2022-12-31T13:35:33.946Z,88.65
2022-12-31T13:38:06.749Z,87.25
2022-12-31T13:40:46.816Z,86.85
2022-12-31T13:43:23.831Z,87.03
2022-12-31T13:46:02.011Z,86.55
2022-12-31T13:48:35.989Z,86.72
2022-12-31T13:51:13.671Z,87.38
2022-12-31T13:53:54.809Z,86.57
2022-12-31T13:56:26.755Z,87.10
2022-12-31T13:59:06.404Z,90.65
2022-12-31T14:01:36.792Z,87.45
2022-12-31T14:04:25.068Z,87.22
2022-12-31T14:07:07.190Z,87.53
2022-12-31T14:09:35.054Z,86.78
2022-12-31T14:12:27.382Z,87.43
2022-12-31T14:15:12.860Z,87.50
2022-12-31T14:18:06.730Z,87.63
2022-12-31T14:20:51.849Z,86.95
2022-12-31T14:23:30.418Z,90.50
2022-12-31T14:25:59.500Z,87.68
2022-12-31T14:28:32.780Z,86.78
2022-12-31T14:31:26.355Z,88.32
2022-12-31T14:34:03.620Z,88.35
2022-12-31T14:36:58.005Z,98.30
2022-12-31T14:39:32.638Z,87.30
2022-12-31T14:42:20.131Z,90.22
2022-12-31T14:45:11.562Z,88.07
2022-12-31T14:47:44.226Z,87.47
2022-12-31T14:50:37.738Z,89.30
2022-12-31T14:53:04.336Z,88.57
2022-12-31T14:55:36.859Z,90.70
2022-12-31T14:58:34.182Z,88.90
2022-12-31T15:01:18.973Z,88.60
2022-12-31T15:03:46.463Z,87.95
2022-12-31T15:06:42.706Z,88.75
2022-12-31T15:09:28.188Z,87.85
2022-12-31T15:12:00.671Z,87.00
2022-12-31T15:14:52.813Z,87.57
2022-12-31T15:18:02.605Z,88.25
2022-12-31T15:20:55.314Z,87.82
2022-12-31T15:23:24.628Z,87.82
2022-12-31T15:26:00.393Z,88.13
2022-12-31T15:28:39.371Z,87.78
2022-12-31T15:31:19.363Z,87.38
2022-12-31T15:33:58.774Z,87.75
2022-12-31T15:36:32.568Z,88.13
2022-12-31T15:39:22.912Z,89.75
2022-12-31T15:42:35.593Z,92.03
2022-12-31T15:44:50.576Z,90.68
2022-12-31T15:47:42.993Z,88.10
2022-12-31T15:50:20.186Z,88.20
2022-12-31T15:52:56.595Z,91.45
2022-12-31T15:55:30.388Z,88.53
2022-12-31T15:58:03.222Z,87.88
2022-12-31T16:00:52.177Z,87.85
2022-12-31T16:03:25.008Z,90.03
2022-12-31T16:06:00.187Z,88.00
2022-12-31T16:08:30.729Z,88.63
2022-12-31T16:10:57.979Z,88.28
2022-12-31T16:13:27.150Z,89.47
2022-12-31T16:16:05.457Z,88.35
2022-12-31T16:18:43.161Z,89.00
2022-12-31T16:21:27.903Z,88.70
2022-12-31T16:23:57.775Z,89.53
2022-12-31T16:26:29.165Z,88.10
2022-12-31T16:29:00.168Z,91.32
2022-12-31T16:31:28.957Z,87.72
2022-12-31T16:34:07.558Z,88.75
2022-12-31T16:36:35.388Z,87.32
2022-12-31T16:39:25.474Z,89.32
2022-12-31T16:42:06.494Z,88.05
2022-12-31T16:44:33.215Z,90.38
2022-12-31T16:47:02.439Z,89.50
2022-12-31T16:49:31.480Z,87.97
2022-12-31T16:52:04.894Z,88.43
2022-12-31T16:54:37.004Z,88.07
2022-12-31T16:57:05.567Z,89.63
2022-12-31T16:59:44.893Z,88.22
2022-12-31T17:02:18.527Z,88.53
2022-12-31T17:04:55.922Z,88.63
2022-12-31T17:07:32.239Z,89.20
2022-12-31T17:10:08.657Z,88.28
2022-12-31T17:13:25.599Z,87.93
2022-12-31T17:15:43.399Z,88.25
2022-12-31T17:18:19.373Z,88.53
2022-12-31T17:20:47.577Z,88.13
2022-12-31T17:23:26.698Z,88.78
2022-12-31T17:26:05.633Z,89.80
2022-12-31T17:28:48.576Z,89.35
2022-12-31T17:31:31.983Z,91.45
2022-12-31T17:34:20.414Z,87.93
2022-12-31T17:37:18.353Z,89.75
2022-12-31T17:39:54.160Z,88.95
2022-12-31T17:42:31.289Z,89.20
2022-12-31T17:45:05.440Z,88.65
2022-12-31T17:47:41.367Z,90.28
2022-12-31T17:50:20.473Z,90.03
2022-12-31T17:52:48.839Z,88.55
2022-12-31T17:55:15.822Z,89.20
2022-12-31T17:57:52.395Z,88.72
2022-12-31T18:00:22.793Z,90.70
2022-12-31T18:02:49.671Z,88.03
2022-12-31T18:05:21.930Z,94.47
2022-12-31T18:07:49.377Z,88.68
2022-12-31T18:10:19.001Z,91.47
2022-12-31T18:12:47.271Z,93.78
2022-12-31T18:15:19.532Z,89.40
2022-12-31T18:17:46.161Z,89.07
2022-12-31T18:20:12.993Z,88.82
2022-12-31T18:22:41.445Z,90.53
2022-12-31T18:25:13.691Z,93.70
2022-12-31T18:27:41.973Z,90.85
2022-12-31T18:30:12.627Z,89.88
2022-12-31T18:32:41.179Z,90.68
2022-12-31T18:35:40.614Z,89.95
2022-12-31T18:38:11.088Z,90.88
2022-12-31T18:40:42.563Z,90.47
2022-12-31T18:43:18.191Z,90.30
2022-12-31T18:45:46.390Z,91.57
2022-12-31T18:48:13.313Z,90.60
2022-12-31T18:50:40.903Z,90.45
2022-12-31T18:53:11.955Z,90.80
2022-12-31T18:55:41.784Z,91.75
2022-12-31T18:58:09.656Z,90.88
2022-12-31T19:00:36.945Z,89.03
2022-12-31T19:03:05.575Z,90.10
2022-12-31T19:05:34.530Z,88.70
2022-12-31T19:08:01.350Z,89.13
2022-12-31T19:10:28.637Z,89.57
2022-12-31T19:12:55.315Z,88.18
2022-12-31T19:15:34.542Z,92.28
2022-12-31T19:18:02.368Z,88.50
2022-12-31T19:20:30.242Z,90.13
2022-12-31T19:22:57.442Z,90.57
2022-12-31T19:25:27.115Z,90.60
2022-12-31T19:27:54.191Z,88.68
2022-12-31T19:30:29.533Z,89.95
2022-12-31T19:32:56.485Z,90.07
2022-12-31T19:35:24.316Z,89.15
2022-12-31T19:37:52.724Z,88.22
2022-12-31T19:40:27.859Z,92.85
2022-12-31T19:42:55.908Z,89.18
2022-12-31T19:45:25.070Z,90.38
2022-12-31T19:47:52.650Z,89.22
2022-12-31T19:50:25.628Z,90.10
2022-12-31T19:52:55.883Z,90.72
2022-12-31T19:55:26.199Z,88.93
2022-12-31T19:57:52.996Z,90.40
2022-12-31T20:00:20.724Z,89.53
2022-12-31T20:02:48.549Z,91.10
2022-12-31T20:05:16.513Z,90.55
2022-12-31T20:07:43.211Z,88.93
2022-12-31T20:10:10.931Z,90.05
2022-12-31T20:12:44.094Z,91.07
2022-12-31T20:15:11.485Z,89.10
2022-12-31T20:17:38.264Z,89.78
2022-12-31T20:20:06.699Z,89.75
2022-12-31T20:22:33.866Z,89.80
2022-12-31T20:25:00.482Z,92.03
2022-12-31T20:27:27.170Z,89.65
2022-12-31T20:29:53.804Z,89.32
2022-12-31T20:32:20.478Z,92.68
2022-12-31T20:34:47.132Z,96.25
2022-12-31T20:37:13.822Z,90.85
2022-12-31T20:39:40.513Z,91.07
2022-12-31T20:42:07.180Z,90.10
2022-12-31T20:44:34.186Z,89.88
2022-12-31T20:47:00.942Z,89.97
2022-12-31T20:49:52.523Z,90.03
2022-12-31T20:52:14.272Z,90.32
2022-12-31T20:54:40.955Z,92.15
2022-12-31T20:57:08.356Z,93.28
2022-12-31T20:59:34.989Z,92.70
2022-12-31T21:04:48.352Z,92.97
2022-12-31T21:07:15.210Z,92.15
2022-12-31T21:09:41.826Z,92.10
2022-12-31T21:12:29.417Z,90.75
2022-12-31T21:14:56.337Z,91.03
2022-12-31T21:17:23.099Z,92.47
2022-12-31T21:19:49.721Z,92.20
2022-12-31T21:22:16.414Z,90.43
2022-12-31T21:24:43.039Z,92.95
2022-12-31T21:27:09.728Z,91.90
2022-12-31T21:29:41.844Z,91.55
2022-12-31T21:32:17.122Z,92.45
2022-12-31T21:34:43.718Z,92.80
2022-12-31T21:37:10.375Z,92.63
2022-12-31T21:39:37.016Z,113.70
2022-12-31T21:42:03.910Z,105.47
2022-12-31T21:44:30.572Z,91.07
2022-12-31T21:47:39.717Z,91.70
2022-12-31T21:50:07.610Z,92.88
2022-12-31T21:52:35.064Z,96.70
2022-12-31T21:55:23.307Z,93.35
2022-12-31T21:58:24.724Z,93.32
2022-12-31T22:00:56.799Z,94.63
2022-12-31T22:03:31.562Z,92.20
2022-12-31T22:06:00.833Z,92.00
2022-12-31T22:08:29.765Z,92.30
2022-12-31T22:10:57.032Z,92.30
2022-12-31T22:13:24.260Z,93.47
2022-12-31T22:16:00.273Z,94.25
2022-12-31T22:18:33.771Z,93.05
2022-12-31T22:21:18.800Z,93.28
2022-12-31T22:23:51.870Z,91.20
2022-12-31T22:26:21.224Z,90.53
2022-12-31T22:28:48.441Z,95.70
2022-12-31T22:31:20.644Z,94.28
2022-12-31T22:33:47.869Z,93.47
2022-12-31T22:36:19.867Z,97.15
2022-12-31T22:38:47.483Z,96.60
2022-12-31T22:41:19.319Z,97.18
2022-12-31T22:43:58.517Z,93.78
2022-12-31T22:46:29.217Z,95.45
2022-12-31T22:48:58.677Z,94.50
2022-12-31T22:51:29.203Z,92.30
2022-12-31T22:54:12.336Z,94.65
2022-12-31T22:56:39.020Z,92.43
2022-12-31T22:59:05.686Z,94.05
2022-12-31T23:01:32.601Z,93.80
2022-12-31T23:03:59.434Z,97.40
2022-12-31T23:06:26.413Z,92.75
2022-12-31T23:09:11.636Z,92.68
2022-12-31T23:11:39.584Z,91.35
2022-12-31T23:14:26.079Z,91.28
2022-12-31T23:17:31.552Z,95.70
2022-12-31T23:20:17.730Z,99.13
2022-12-31T23:23:03.005Z,95.25
2022-12-31T23:25:32.881Z,95.35
2022-12-31T23:27:59.585Z,97.30
2022-12-31T23:30:26.201Z,109.22
2022-12-31T23:32:52.886Z,107.90
2022-12-31T23:35:19.517Z,113.35
2022-12-31T23:37:46.154Z,109.20
2022-12-31T23:40:20.642Z,109.60
2022-12-31T23:42:48.361Z,109.15
2022-12-31T23:45:15.050Z,104.85
2022-12-31T23:47:41.766Z,109.88
2022-12-31T23:50:08.720Z,102.35
2022-12-31T23:52:35.498Z,101.20
2022-12-31T23:55:03.587Z,103.13
2022-12-31T23:57:30.363Z,103.82
2022-12-31T23:59:57.024Z,102.90
